Weather History for KDKB - January, 2013

Change the Weather History Date:

Saturday, January 5, 2013

  Actual Average (KARR) Record (KARR)
Temperature  
Mean Temperature 24 °F 21 °F  
Max Temperature 34 °F 29 °F 50 °F (1998)
Min Temperature 13 °F 14 °F -25 °F (1999)
Degree Days  
Heating Degree Days 42 44  
Month to date heating degree days 218  
Since 1 July heating degree days 2867  
Cooling Degree Days 0 0  
Month to date cooling degree days 0  
Year to date cooling degree days 0  
Moisture  
Dew Point 23 °F    
Average Humidity 88    
Maximum Humidity 93    
Minimum Humidity 79    
Precipitation  
Precipitation 0.00 in 0.04 in 0.10 in (2003)
Month to date precipitation 0.21  
Year to date precipitation 0.21  
Sea Level Pressure  
Sea Level Pressure 30.09 in    
Wind  
Wind Speed 9 mph (SSW)    
Max Wind Speed 20 mph    
Max Gust Speed 25 mph    
Visibility 7 miles    
Events Rain , Snow    
T = Trace of Precipitation, MM = Missing Value Source: NWS Daily Summary

Daily Weather History Graph

Daily Weather History Graph

Search for Another Location

Airport or City:

Trip Planner

Search our weather history database for the weather conditions in past years. The results will help you decide how hot, cold, wet, or windy it might be!

Date:

Astronomy

Jan. 05, 2013 Rise Set
Actual Time 7:22 AM CST 4:38 PM CST
Civil Twilight 6:51 AM CST 5:09 PM CST
Nautical Twilight 6:16 AM CST 5:44 PM CST
Astronomical Twilight 5:42 AM CST 6:18 PM CST
Moon 12:25 AM CST (1/5) 11:30 AM CST (1/5)
Length of Visible Light 10h 18m
Length of Day
9h 15m
Last Quarter, 44% of the Moon is Illuminated
Jan 5
Last Quarter
Jan 11
New
Jan 18
First Quarter
Jan 26
Full
Feb 3
Last Quarter

Hourly Weather History & Observations

Time (CST) Temp. Windchill Dew Point Humidity Pressure Visibility Wind Dir Wind Speed Gust Speed Precip Events Conditions
12:15 AM 23.9 °F - 19.8 °F 84% 30.18 in 10.0 mi Calm Calm - N/A   Clear
12:35 AM 18.3 °F 9.1 °F 14.7 °F 86% 30.20 in 7.0 mi SSW 6.9 mph - N/A   Clear
12:55 AM 18.1 °F 8.9 °F 14.7 °F 86% 30.20 in 7.0 mi South 6.9 mph - N/A   Clear
1:15 AM 16.7 °F 8.3 °F 13.6 °F 88% 30.20 in 7.0 mi South 5.8 mph - N/A   Clear
1:35 AM 17.6 °F 8.2 °F 14.7 °F 88% 30.21 in 7.0 mi SW 6.9 mph - N/A   Clear
1:55 AM 21.2 °F 11.7 °F 18.0 °F 87% 30.21 in 7.0 mi SW 8.1 mph - N/A   Clear
2:15 AM 22.6 °F 13.4 °F 19.2 °F 87% 30.21 in 10.0 mi WSW 8.1 mph - N/A   Clear
2:35 AM 23.5 °F 13.0 °F 19.8 °F 85% 30.22 in 10.0 mi SW 10.4 mph - N/A   Clear
2:55 AM 22.8 °F 12.9 °F 19.2 °F 86% 30.21 in 7.0 mi WSW 9.2 mph - N/A   Clear
3:15 AM 22.3 °F 13.9 °F 18.7 °F 86% 30.21 in 7.0 mi WSW 6.9 mph - N/A   Clear
3:35 AM 16.0 °F 7.4 °F 12.7 °F 87% 30.20 in 7.0 mi SSW 5.8 mph - N/A   Clear
3:55 AM 15.8 °F 10.2 °F 12.9 °F 88% 30.19 in 5.0 mi WSW 3.5 mph - N/A   Clear
4:15 AM 14.0 °F 5.1 °F 10.9 °F 88% 30.19 in 7.0 mi SSW 5.8 mph - N/A   Clear
4:35 AM 13.8 °F 3.7 °F 10.9 °F 88% 30.19 in 5.0 mi South 6.9 mph - N/A   Clear
4:55 AM 14.9 °F 5.0 °F 12.2 °F 89% 30.17 in 5.0 mi SSE 6.9 mph - N/A   Clear
5:15 AM 15.1 °F 5.2 °F 12.4 °F 89% 30.16 in 5.0 mi SSE 6.9 mph - N/A   Clear
5:35 AM 14.9 °F 3.1 °F 12.0 °F 88% 30.17 in 5.0 mi South 9.2 mph - N/A   Clear
5:55 AM 15.6 °F 3.2 °F 12.9 °F 89% 30.19 in 5.0 mi South 10.4 mph - N/A   Clear
6:15 AM 17.1 °F 5.8 °F 14.4 °F 89% 30.18 in 5.0 mi SSW 9.2 mph - N/A   Clear
6:35 AM 16.3 °F 6.7 °F 13.5 °F 88% 30.17 in 5.0 mi South 6.9 mph - N/A   Clear
6:55 AM 14.9 °F 4.0 °F 12.2 °F 89% 30.16 in 5.0 mi South 8.1 mph - N/A   Clear
7:15 AM 14.9 °F 4.0 °F 12.2 °F 89% 30.16 in 5.0 mi South 8.1 mph - N/A   Clear
7:35 AM 14.9 °F 3.1 °F 12.2 °F 89% 30.17 in 4.0 mi South 9.2 mph - N/A   Clear
7:55 AM 14.9 °F 5.0 °F 12.2 °F 89% 30.16 in 5.0 mi South 6.9 mph - N/A   Clear
8:15 AM 16.9 °F 6.4 °F 14.2 °F 89% 30.16 in 5.0 mi SSE 8.1 mph - N/A   Clear
8:35 AM 18.7 °F 7.8 °F 16.0 °F 89% 30.15 in 5.0 mi South 9.2 mph - N/A   Clear
8:55 AM 20.7 °F 8.2 °F 18.0 °F 89% 30.16 in 5.0 mi South 12.7 mph - N/A   Clear
9:15 AM 22.6 °F 11.3 °F 19.4 °F 87% 30.16 in 7.0 mi South 11.5 mph - N/A   Clear
9:55 AM 26.6 °F 17.5 °F 23.0 °F 86% 30.16 in 7.0 mi SSW 9.2 mph - N/A   Clear
10:15 AM 27.0 °F 16.7 °F 23.0 °F 85% 30.16 in 10.0 mi SSW 11.5 mph - N/A   Clear
10:35 AM 28.4 °F 18.0 °F 24.8 °F 86% 30.15 in 10.0 mi SSW 12.7 mph - N/A   Clear
10:55 AM 30.2 °F 20.2 °F 25.2 °F 82% 30.13 in 10.0 mi South 12.7 mph - N/A   Clear
11:15 AM 30.6 °F 22.4 °F 25.3 °F 81% 30.12 in 10.0 mi South 9.2 mph - N/A   Mostly Cloudy
11:35 AM 32.0 °F 23.6 °F 26.6 °F 80% 30.11 in 10.0 mi SSW 10.4 mph - N/A   Overcast
11:55 AM 31.8 °F 21.0 °F 26.2 °F 80% 30.11 in 10.0 mi SSW 16.1 mph - N/A   Mostly Cloudy
12:15 PM 32.4 °F 24.0 °F 27.1 °F 81% 30.08 in 10.0 mi SSW 10.4 mph - N/A   Mostly Cloudy
12:35 PM 32.5 °F 24.2 °F 27.3 °F 81% 30.07 in 10.0 mi SSW 10.4 mph - N/A   Scattered Clouds
12:55 PM 32.7 °F 22.1 °F 27.3 °F 81% 30.06 in 10.0 mi SSW 16.1 mph - N/A   Scattered Clouds
1:15 PM 33.8 °F 24.3 °F 27.9 °F 79% 30.06 in 10.0 mi SSW 13.8 mph - N/A   Scattered Clouds
1:35 PM 34.0 °F 22.7 °F 28.2 °F 79% 30.05 in 10.0 mi SW 19.6 mph 25.3 mph N/A   Mostly Cloudy
1:55 PM 33.3 °F 22.5 °F 29.3 °F 85% 30.04 in 5.0 mi SW 17.3 mph 21.9 mph N/A Snow Light Snow
2:15 PM 32.9 °F 21.6 °F 30.0 °F 89% 30.04 in 2.5 mi SW 18.4 mph 23.0 mph N/A Snow Light Snow
2:35 PM 32.5 °F 23.2 °F 30.2 °F 91% 30.04 in 4.0 mi SSW 12.7 mph - N/A Snow Light Snow
2:55 PM 32.5 °F 23.7 °F 30.6 °F 92% 30.03 in 5.0 mi SSW 11.5 mph - N/A Snow Snow
3:15 PM 32.5 °F 23.7 °F 30.6 °F 92% 30.02 in 5.0 mi SSW 11.5 mph 18.4 mph N/A Snow Light Snow
3:35 PM 32.5 °F 24.2 °F 30.4 °F 92% 30.02 in 5.0 mi South 10.4 mph - N/A Rain Light Rain
3:55 PM 32.0 °F 23.0 °F 30.2 °F 93% 30.01 in 4.0 mi South 11.5 mph - N/A   Light Drizzle
4:15 PM 32.0 °F 23.0 °F 29.8 °F 92% 30.00 in 2.5 mi South 11.5 mph - N/A Snow Light Snow
4:55 PM 32.0 °F 22.5 °F 29.8 °F 92% 30.00 in 4.0 mi South 12.7 mph - N/A   Light Drizzle
5:15 PM 32.0 °F 23.0 °F 30.2 °F 93% 30.00 in 5.0 mi South 11.5 mph - N/A   Overcast
5:35 PM 32.0 °F 21.6 °F 30.2 °F 93% 30.00 in 5.0 mi South 15.0 mph 21.9 mph N/A   Light Drizzle
5:55 PM 32.0 °F 22.1 °F 29.8 °F 92% 30.00 in 5.0 mi SSW 13.8 mph - N/A   Overcast
6:15 PM 32.0 °F 21.2 °F 29.8 °F 92% 30.00 in 5.0 mi SSW 16.1 mph 21.9 mph N/A Rain Light Rain
6:35 PM 32.0 °F 21.2 °F 29.8 °F 92% 30.00 in 7.0 mi SSW 16.1 mph 21.9 mph N/A Rain Light Rain
6:55 PM 32.0 °F 20.8 °F 29.7 °F 91% 30.00 in 10.0 mi SSW 17.3 mph - N/A   Overcast
7:15 PM 32.0 °F 21.2 °F 29.5 °F 90% 30.00 in 10.0 mi SSW 16.1 mph - N/A   Overcast
7:35 PM 32.0 °F 21.2 °F 30.2 °F 93% 29.99 in 7.0 mi SSW 16.1 mph - N/A   Light Drizzle
7:55 PM 32.0 °F 20.8 °F 29.8 °F 92% 29.99 in 7.0 mi SSW 17.3 mph 21.9 mph N/A   Light Drizzle
8:15 PM 32.5 °F 21.9 °F 30.2 °F 91% 29.98 in 7.0 mi SSW 16.1 mph 23.0 mph N/A   Light Drizzle
8:35 PM 32.5 °F 21.9 °F 30.2 °F 91% 29.98 in 5.0 mi SSW 16.1 mph 21.9 mph N/A   Overcast
8:55 PM 32.5 °F 21.2 °F 30.6 °F 92% 29.97 in 5.0 mi SSW 18.4 mph 21.9 mph N/A   Overcast
9:15 PM 32.9 °F 22.8 °F 30.6 °F 91% 29.97 in 7.0 mi SSW 15.0 mph - N/A   Overcast
9:35 PM 32.7 °F 22.5 °F 30.6 °F 92% 29.96 in 7.0 mi SW 15.0 mph 19.6 mph N/A   Overcast
9:55 PM 32.9 °F 22.8 °F 30.6 °F 91% 29.96 in 7.0 mi SW 15.0 mph - N/A   Overcast
10:15 PM 32.9 °F 22.4 °F 30.6 °F 91% 29.95 in 7.0 mi SW 16.1 mph - N/A   Overcast
10:35 PM 32.9 °F 23.2 °F 30.6 °F 91% 29.95 in 7.0 mi SW 13.8 mph - N/A   Overcast
10:55 PM 32.9 °F 23.7 °F 30.6 °F 91% 29.94 in 7.0 mi SSW 12.7 mph - N/A   Overcast
11:15 PM 32.9 °F 22.8 °F 30.6 °F 91% 29.93 in 7.0 mi SW 15.0 mph - N/A   Overcast
11:35 PM 33.1 °F 22.6 °F 30.6 °F 90% 29.92 in 7.0 mi SW 16.1 mph 20.7 mph N/A   Overcast
11:55 PM 32.9 °F 22.4 °F 30.6 °F 91% 29.92 in 7.0 mi SW 16.1 mph - N/A   Overcast